Time;durP1;ratioP1;P1;durP2;ratioP2;P2;SDS_P1;SDS_P2;PMS_P1;PMS_P2;Temp;Humidity;BMP_temperature;BMP_pressure;BME280_temperature;BME280_humidity;BME280_pressure;Samples;Min_cycle;Max_cycle;Signal;HPM_P1;HPM_P2
2023/06/27 04:32:29;;;;;;;6.60;2.28;;;16.30;73.20;;;;;;4903260;29;20843;-79
2023/06/27 04:34:57;;;;;;;7.53;2.70;;;16.30;73.40;;;;;;4915943;29;20067;-79
2023/06/27 04:37:23;;;;;;;7.90;2.45;;;16.40;73.30;;;;;;4915461;29;20067;-78
2023/06/27 04:39:49;;;;;;;8.30;2.40;;;16.50;72.40;;;;;;4909902;29;20068;-77
2023/06/27 04:42:15;;;;;;;9.55;2.35;;;16.50;72.30;;;;;;4908454;29;20075;-78
2023/06/27 04:44:40;;;;;;;8.00;2.40;;;16.40;72.60;;;;;;4897555;29;20049;-79
2023/06/27 04:47:06;;;;;;;9.13;2.70;;;16.40;72.30;;;;;;4911833;29;20391;-79
2023/06/27 04:49:31;;;;;;;10.40;2.50;;;16.40;73.10;;;;;;4916388;29;20063;-79
2023/06/27 04:51:57;;;;;;;6.93;2.38;;;16.40;73.00;;;;;;4915478;29;20051;-79
2023/06/27 04:54:23;;;;;;;5.72;2.47;;;16.50;73.20;;;;;;4914857;29;20149;-86
2023/06/27 04:56:48;;;;;;;5.70;2.60;;;16.30;73.90;;;;;;4904439;29;20077;-83
2023/06/27 04:59:14;;;;;;;6.90;2.70;;;16.30;74.20;;;;;;4917049;29;20395;-89
2023/06/27 05:01:39;;;;;;;6.35;2.72;;;16.40;74.00;;;;;;4913138;29;20028;-87
2023/06/27 05:04:05;;;;;;;7.07;2.90;;;16.50;73.30;;;;;;4908673;29;20025;-85
2023/06/27 05:06:32;;;;;;;6.88;2.40;;;16.60;73.40;;;;;;4898181;29;20053;-87
2023/06/27 05:08:58;;;;;;;10.25;2.90;;;16.60;72.90;;;;;;4909716;29;20109;-89
2023/06/27 05:11:24;;;;;;;9.70;2.40;;;16.70;72.60;;;;;;4899304;29;20036;-86
2023/06/27 05:13:50;;;;;;;6.00;2.50;;;16.60;73.40;;;;;;4915754;29;20028;-90
2023/06/27 05:16:16;;;;;;;4.97;2.35;;;16.60;73.30;;;;;;4920262;29;20031;-85
2023/06/27 05:18:41;;;;;;;7.68;2.80;;;16.70;72.70;;;;;;4919721;29;20032;-85
2023/06/27 05:21:07;;;;;;;8.57;2.40;;;16.80;72.70;;;;;;4914955;29;20510;-90
2023/06/27 05:23:33;;;;;;;8.98;2.90;;;16.80;71.90;;;;;;4886918;29;20041;-86
2023/06/27 05:25:58;;;;;;;6.03;2.45;;;16.80;72.20;;;;;;4899800;29;20025;-86
2023/06/27 05:28:24;;;;;;;7.90;3.00;;;16.90;72.40;;;;;;4885431;29;20414;-84
2023/06/27 05:30:49;;;;;;;9.25;2.90;;;16.90;71.90;;;;;;4885048;29;20058;-85
2023/06/27 05:33:15;;;;;;;7.80;2.60;;;16.90;72.30;;;;;;4903736;29;20028;-86
2023/06/27 05:35:41;;;;;;;5.95;2.70;;;17.00;71.60;;;;;;4904793;29;20059;-85
2023/06/27 05:38:06;;;;;;;7.10;2.80;;;17.10;72.60;;;;;;4921973;29;20500;-84
2023/06/27 05:40:32;;;;;;;9.45;3.58;;;17.10;71.60;;;;;;4904861;29;20024;-86
2023/06/27 05:42:58;;;;;;;8.82;3.08;;;17.20;71.70;;;;;;4904819;29;20524;-85
2023/06/27 05:45:23;;;;;;;9.27;2.63;;;17.20;71.20;;;;;;4914842;29;20032;-85
2023/06/27 05:47:49;;;;;;;8.77;2.75;;;17.30;71.50;;;;;;4922259;29;20032;-85
2023/06/27 05:50:15;;;;;;;7.38;3.28;;;17.30;71.60;;;;;;4916566;29;20020;-85
2023/06/27 05:52:41;;;;;;;11.25;2.75;;;17.30;71.50;;;;;;4922403;29;20051;-88
2023/06/27 05:55:07;;;;;;;9.23;3.53;;;17.40;71.10;;;;;;4922234;29;20028;-86
2023/06/27 05:57:33;;;;;;;8.13;2.50;;;17.40;72.10;;;;;;4913211;29;20056;-86
2023/06/27 05:59:58;;;;;;;7.30;2.72;;;17.40;72.40;;;;;;4903611;29;20063;-87
2023/06/27 06:02:24;;;;;;;7.05;3.42;;;17.50;72.30;;;;;;4919279;29;20032;-86
2023/06/27 06:04:50;;;;;;;7.43;2.70;;;17.50;72.30;;;;;;4922006;29;20068;-86
2023/06/27 06:07:15;;;;;;;8.00;2.90;;;17.60;72.00;;;;;;4904478;29;20442;-86
2023/06/27 06:09:41;;;;;;;7.10;2.70;;;17.70;72.30;;;;;;4922192;29;20032;-86
2023/06/27 06:12:07;;;;;;;7.22;2.90;;;17.80;71.70;;;;;;4921886;29;20036;-86
2023/06/27 06:14:33;;;;;;;8.32;3.17;;;17.90;72.10;;;;;;4921782;29;20031;-87
2023/06/27 06:16:58;;;;;;;6.70;2.80;;;17.90;72.60;;;;;;4921670;29;20067;-86
2023/06/27 06:19:24;;;;;;;11.02;2.88;;;18.00;71.20;;;;;;4922160;29;20084;-85
2023/06/27 06:21:49;;;;;;;7.70;2.63;;;18.20;71.60;;;;;;4920680;29;20078;-87
2023/06/27 06:24:15;;;;;;;6.90;2.97;;;18.20;71.20;;;;;;4908903;29;20029;-85
2023/06/27 06:26:41;;;;;;;12.20;3.10;;;18.20;71.80;;;;;;4902917;29;20084;-85
2023/06/27 06:29:12;;;;;;;12.20;3.13;;;18.30;71.70;;;;;;4919840;29;20490;-86
2023/06/27 06:31:41;;;;;;;10.27;2.78;;;18.30;71.40;;;;;;4918524;29;20507;-86
2023/06/27 06:34:07;;;;;;;7.05;3.15;;;18.40;71.60;;;;;;4902679;29;20081;-86
2023/06/27 06:36:32;;;;;;;9.95;3.10;;;18.50;71.70;;;;;;4903275;29;20040;-85
2023/06/27 06:38:58;;;;;;;6.75;2.58;;;18.60;71.50;;;;;;4920882;29;20047;-85
2023/06/27 06:41:24;;;;;;;6.50;2.85;;;18.70;70.90;;;;;;4922196;29;20092;-85
2023/06/27 06:43:50;;;;;;;8.25;2.58;;;18.80;71.10;;;;;;4921284;29;20032;-86
2023/06/27 06:46:16;;;;;;;9.75;2.75;;;18.80;70.60;;;;;;4922266;29;20495;-88
2023/06/27 06:48:41;;;;;;;8.50;2.80;;;18.90;71.10;;;;;;4922388;29;20024;-86
2023/06/27 06:51:08;;;;;;;6.38;2.30;;;19.00;70.60;;;;;;4921422;29;20487;-86
2023/06/27 06:53:34;;;;;;;7.00;2.40;;;19.00;70.60;;;;;;4921880;29;20027;-85
2023/06/27 06:55:59;;;;;;;7.25;2.80;;;19.20;70.40;;;;;;4922355;29;20024;-86
2023/06/27 06:58:25;;;;;;;9.82;2.83;;;19.20;70.30;;;;;;4921796;29;20510;-85
2023/06/27 07:00:51;;;;;;;7.50;3.10;;;19.30;69.80;;;;;;4888798;29;20039;-85
2023/06/27 07:03:16;;;;;;;11.52;3.05;;;19.40;70.00;;;;;;4918075;29;20509;-85
2023/06/27 07:05:42;;;;;;;7.30;3.03;;;19.40;70.00;;;;;;4905418;29;20028;-85
2023/06/27 07:08:08;;;;;;;7.72;2.45;;;19.50;69.80;;;;;;4903184;29;20038;-85
2023/06/27 07:10:34;;;;;;;10.40;2.88;;;19.60;69.70;;;;;;4887429;29;20025;-85
2023/06/27 07:12:59;;;;;;;12.55;3.28;;;19.70;69.50;;;;;;4902231;29;20032;-86
2023/06/27 07:15:29;;;;;;;9.00;3.00;;;19.90;69.40;;;;;;4913742;29;20510;-84
2023/06/27 07:17:55;;;;;;;6.32;2.70;;;20.30;68.70;;;;;;4921298;29;20031;-85
2023/06/27 07:20:22;;;;;;;7.50;2.97;;;20.60;66.90;;;;;;4906686;29;20028;-84
2023/06/27 07:22:50;;;;;;;6.57;2.33;;;20.70;66.60;;;;;;4902174;29;20028;-85
2023/06/27 07:25:16;;;;;;;6.22;2.50;;;20.80;66.20;;;;;;4885330;29;20036;-85
2023/06/27 07:27:43;;;;;;;9.30;2.65;;;20.80;66.80;;;;;;4913845;29;20035;-84
2023/06/27 07:30:09;;;;;;;5.50;2.58;;;20.80;66.30;;;;;;4918009;29;20037;-86
2023/06/27 07:32:34;;;;;;;10.27;2.80;;;20.90;65.80;;;;;;4916536;29;20051;-86
2023/06/27 07:35:04;;;;;;;8.85;2.13;;;21.00;66.00;;;;;;4917825;29;20501;-86
2023/06/27 07:37:30;;;;;;;9.20;2.45;;;21.20;65.20;;;;;;4915106;29;20031;-86
2023/06/27 07:39:56;;;;;;;6.80;1.98;;;21.30;64.10;;;;;;4918746;29;20028;-85
2023/06/27 07:42:21;;;;;;;6.10;2.60;;;21.40;64.00;;;;;;4919269;29;20028;-85
2023/06/27 07:44:48;;;;;;;6.65;1.88;;;21.40;63.50;;;;;;4919741;29;20414;-85
2023/06/27 07:47:14;;;;;;;17.35;2.42;;;21.30;64.00;;;;;;4913817;29;20040;-86
2023/06/27 07:49:39;;;;;;;10.05;2.22;;;21.20;63.60;;;;;;4900602;29;20032;-86
2023/06/27 07:52:09;;;;;;;9.43;2.45;;;21.10;63.80;;;;;;4902301;29;20028;-85
2023/06/27 07:54:36;;;;;;;8.80;1.95;;;21.10;64.30;;;;;;4917535;29;20024;-87
2023/06/27 07:57:02;;;;;;;7.35;1.85;;;21.00;64.50;;;;;;4918068;29;20032;-84
2023/06/27 07:59:27;;;;;;;6.25;2.05;;;20.90;64.50;;;;;;4920127;29;20027;-86
2023/06/27 08:01:54;;;;;;;11.18;2.30;;;20.90;64.50;;;;;;4915847;29;20036;-86
2023/06/27 08:04:21;;;;;;;8.23;2.13;;;20.90;64.70;;;;;;4917472;29;20649;-83
2023/06/27 08:06:46;;;;;;;8.85;2.08;;;21.10;64.50;;;;;;4900753;29;20032;-83
2023/06/27 08:09:12;;;;;;;5.72;1.85;;;21.00;63.50;;;;;;4916510;29;20115;-76
2023/06/27 08:11:38;;;;;;;9.98;2.35;;;21.10;64.10;;;;;;4909623;29;20611;-77
2023/06/27 08:14:03;;;;;;;5.85;2.10;;;21.20;63.80;;;;;;4913126;29;20029;-75
2023/06/27 08:16:29;;;;;;;4.78;1.85;;;21.10;63.40;;;;;;4913734;29;20043;-75
2023/06/27 08:18:56;;;;;;;7.40;2.33;;;21.20;63.70;;;;;;4900033;29;20028;-76
2023/06/27 08:21:21;;;;;;;8.23;2.30;;;21.30;63.50;;;;;;4899999;29;20036;-75
2023/06/27 08:23:47;;;;;;;8.45;2.15;;;21.50;63.00;;;;;;4918085;29;20024;-76
2023/06/27 08:26:17;;;;;;;7.60;1.80;;;21.80;61.20;;;;;;4916482;29;20056;-76
2023/06/27 08:28:43;;;;;;;6.32;2.22;;;22.70;60.00;;;;;;4918693;29;20024;-75
2023/06/27 08:31:10;;;;;;;8.73;2.10;;;23.70;57.20;;;;;;4915736;29;20054;-75
2023/06/27 08:33:36;;;;;;;9.35;2.15;;;24.50;55.20;;;;;;4914451;29;20399;-76
2023/06/27 08:36:02;;;;;;;4.97;1.90;;;25.00;53.40;;;;;;4915731;29;20106;-76
2023/06/27 08:38:27;;;;;;;9.80;2.55;;;25.60;51.80;;;;;;4908435;29;20024;-76
2023/06/27 08:40:54;;;;;;;7.22;2.67;;;25.90;50.10;;;;;;4898910;29;20042;-75
2023/06/27 08:43:21;;;;;;;5.93;2.60;;;26.20;49.70;;;;;;4894684;29;20035;-76
2023/06/27 08:45:48;;;;;;;6.72;1.90;;;26.10;50.10;;;;;;4894924;29;20094;-76
2023/06/27 08:48:16;;;;;;;6.40;1.90;;;25.80;48.40;;;;;;4897551;29;20028;-76
2023/06/27 08:50:43;;;;;;;8.20;2.45;;;25.40;49.90;;;;;;4915863;29;20032;-76
2023/06/27 08:53:14;;;;;;;7.18;1.70;;;25.30;49.50;;;;;;4918745;29;20387;-76
2023/06/27 08:56:01;;;;;;;8.82;1.55;;;25.40;48.80;;;;;;4910612;29;20043;-76
2023/06/27 08:58:39;;;;;;;4.22;1.55;;;25.70;47.10;;;;;;4899988;29;20036;-77
2023/06/27 09:01:05;;;;;;;6.70;1.88;;;25.90;46.50;;;;;;4899907;29;20116;-76
2023/06/27 09:03:32;;;;;;;4.65;1.67;;;25.80;46.60;;;;;;4898366;29;20036;-76
2023/06/27 09:05:58;;;;;;;8.88;1.75;;;25.70;47.10;;;;;;4907549;29;20899;-76
2023/06/27 09:08:24;;;;;;;9.23;1.80;;;25.60;47.30;;;;;;4918001;29;20036;-76
2023/06/27 09:10:50;;;;;;;5.35;1.60;;;25.60;47.10;;;;;;4901143;29;20487;-76
2023/06/27 09:13:17;;;;;;;6.72;2.00;;;25.90;46.70;;;;;;4902165;29;20098;-76
2023/06/27 09:15:43;;;;;;;6.45;1.75;;;26.20;47.60;;;;;;4910350;29;20036;-76
2023/06/27 09:18:09;;;;;;;7.18;1.98;;;26.20;46.70;;;;;;4899833;29;20626;-75
2023/06/27 09:20:34;;;;;;;6.07;2.05;;;26.20;46.80;;;;;;4912914;29;20574;-76
2023/06/27 09:23:05;;;;;;;5.60;1.60;;;26.10;46.40;;;;;;4913539;29;20064;-76
2023/06/27 09:25:31;;;;;;;5.18;1.88;;;26.00;46.30;;;;;;4895471;29;20036;-75
2023/06/27 09:27:58;;;;;;;5.20;1.58;;;25.90;45.90;;;;;;4913539;29;20372;-76
2023/06/27 09:30:24;;;;;;;6.30;1.50;;;25.90;45.00;;;;;;4907932;29;20032;-76
2023/06/27 09:32:57;;;;;;;7.65;1.70;;;25.90;45.50;;;;;;4894700;29;20028;-75
2023/06/27 09:35:24;;;;;;;4.25;1.80;;;26.10;45.30;;;;;;4913022;29;20116;-76
2023/06/27 09:37:51;;;;;;;5.30;1.30;;;26.10;44.30;;;;;;4909609;29;20016;-76
2023/06/27 09:40:18;;;;;;;5.85;1.63;;;26.50;44.70;;;;;;4892071;29;20040;-76
2023/06/27 09:42:48;;;;;;;4.38;1.60;;;26.90;44.30;;;;;;4915141;29;20060;-76
2023/06/27 09:45:16;;;;;;;5.45;1.70;;;27.50;43.60;;;;;;4913437;29;20043;-77
2023/06/27 09:47:42;;;;;;;5.18;1.70;;;28.00;42.50;;;;;;4909862;29;20038;-77
2023/06/27 09:50:08;;;;;;;5.60;1.67;;;28.30;41.70;;;;;;4909348;29;20091;-76
2023/06/27 09:52:34;;;;;;;4.45;1.48;;;28.60;40.50;;;;;;4892883;29;20036;-76
2023/06/27 09:55:00;;;;;;;6.28;1.58;;;28.10;40.20;;;;;;4900102;29;20043;-77
2023/06/27 09:57:26;;;;;;;7.63;2.00;;;28.30;40.40;;;;;;4911257;29;20494;-76
2023/06/27 09:59:58;;;;;;;6.78;1.70;;;28.60;40.30;;;;;;4912690;29;20061;-77
2023/06/27 10:02:29;;;;;;;4.53;1.40;;;28.80;39.20;;;;;;4910034;29;20108;-76
2023/06/27 10:04:55;;;;;;;4.93;1.35;;;28.70;38.90;;;;;;4890747;29;20511;-77
2023/06/27 10:07:20;;;;;;;6.43;1.80;;;28.60;40.10;;;;;;4896393;29;20032;-76
2023/06/27 10:09:46;;;;;;;7.22;2.03;;;28.50;39.00;;;;;;4912908;29;20036;-76
2023/06/27 10:12:14;;;;;;;7.75;1.60;;;28.50;39.00;;;;;;4914921;29;20040;-77
2023/06/27 10:14:44;;;;;;;6.13;1.65;;;28.70;38.80;;;;;;4894275;29;20499;-77
2023/06/27 10:17:18;;;;;;;6.60;1.75;;;28.60;38.60;;;;;;4915359;29;20052;-76
2023/06/27 10:19:45;;;;;;;5.60;1.85;;;28.70;39.20;;;;;;4915535;29;20438;-77
2023/06/27 10:22:16;;;;;;;5.88;1.58;;;29.00;39.50;;;;;;4896302;29;20115;-76
2023/06/27 10:24:45;;;;;;;5.47;1.50;;;28.60;38.40;;;;;;4912003;29;20395;-77
2023/06/27 10:27:13;;;;;;;5.05;1.65;;;28.30;39.20;;;;;;4911314;29;20025;-76
2023/06/27 10:29:42;;;;;;;3.63;1.40;;;28.50;38.40;;;;;;4911190;29;20104;-76
2023/06/27 10:32:15;;;;;;;4.72;1.52;;;28.60;38.00;;;;;;4917790;29;20103;-76
2023/06/27 10:34:42;;;;;;;5.25;1.60;;;28.70;37.90;;;;;;4916764;29;20491;-76
2023/06/27 10:37:23;;;;;;;5.60;1.70;;;28.50;38.10;;;;;;4917681;29;20036;-76
2023/06/27 10:39:56;;;;;;;6.85;1.65;;;28.50;38.50;;;;;;4921751;29;20024;-76
2023/06/27 10:42:22;;;;;;;5.78;1.63;;;28.50;39.40;;;;;;4908835;29;20024;-76
2023/06/27 10:45:02;;;;;;;4.88;1.50;;;28.50;38.60;;;;;;4919524;29;20024;-76
2023/06/27 10:47:34;;;;;;;5.88;1.70;;;28.30;39.40;;;;;;4898774;29;20064;-76
2023/06/27 10:50:24;;;;;;;5.55;1.80;;;28.50;40.40;;;;;;4899262;29;20031;-75
2023/06/27 10:53:19;;;;;;;7.95;1.70;;;28.60;38.60;;;;;;4904323;29;20036;-76
2023/06/27 10:55:45;;;;;;;5.95;1.67;;;28.30;40.00;;;;;;4897527;29;20408;-77
2023/06/27 10:58:11;;;;;;;7.28;1.55;;;28.10;39.80;;;;;;4907904;29;20036;-75
2023/06/27 11:00:44;;;;;;;4.72;1.60;;;27.90;39.90;;;;;;4906366;29;20139;-75
2023/06/27 11:03:10;;;;;;;4.65;1.45;;;27.70;39.90;;;;;;4919120;29;20526;-79
2023/06/27 11:05:36;;;;;;;5.18;1.67;;;27.30;40.30;;;;;;4918243;29;20039;-75
2023/06/27 11:08:02;;;;;;;4.25;1.40;;;26.80;40.60;;;;;;4901248;29;20036;-75
2023/06/27 11:10:29;;;;;;;4.03;1.40;;;26.80;39.90;;;;;;4906032;29;20024;-75
2023/06/27 11:13:21;;;;;;;5.38;1.33;;;26.90;42.00;;;;;;4920663;29;20107;-75
2023/06/27 11:15:48;;;;;;;8.23;1.52;;;27.00;40.50;;;;;;4905670;29;20024;-75
2023/06/27 11:18:15;;;;;;;5.63;1.98;;;27.30;40.80;;;;;;4902068;29;20036;-76
2023/06/27 11:20:42;;;;;;;4.22;1.60;;;27.50;39.70;;;;;;4901904;29;20037;-75
2023/06/27 11:23:07;;;;;;;5.00;1.55;;;27.80;40.40;;;;;;4903170;29;20048;-75
2023/06/27 11:25:38;;;;;;;5.95;1.50;;;27.90;38.60;;;;;;4920440;29;20032;-74
2023/06/27 11:28:04;;;;;;;5.40;1.63;;;27.80;39.50;;;;;;4919924;29;20084;-74
2023/06/27 11:30:33;;;;;;;4.55;1.60;;;28.00;39.60;;;;;;4920081;29;20044;-77
2023/06/27 11:33:00;;;;;;;5.13;1.35;;;27.80;39.90;;;;;;4911587;29;20028;-74
2023/06/27 11:35:28;;;;;;;10.60;1.80;;;27.80;39.60;;;;;;4903633;29;20492;-75
2023/06/27 11:37:54;;;;;;;5.38;1.30;;;27.80;39.60;;;;;;4919816;29;20036;-74
2023/06/27 11:40:24;;;;;;;5.72;1.70;;;27.80;38.50;;;;;;4898574;29;20021;-74
2023/06/27 11:42:58;;;;;;;5.32;1.48;;;27.60;39.00;;;;;;4917403;29;20490;-74
2023/06/27 11:45:23;;;;;;;4.13;1.63;;;27.20;38.80;;;;;;4915872;29;20415;-75
2023/06/27 11:47:50;;;;;;;6.72;1.50;;;27.10;39.70;;;;;;4909248;29;20039;-74
2023/06/27 11:50:15;;;;;;;6.07;1.80;;;27.00;39.80;;;;;;4898517;29;20042;-74
2023/06/27 11:52:41;;;;;;;7.50;1.77;;;26.80;40.60;;;;;;4915245;29;20032;-74
2023/06/27 11:55:07;;;;;;;5.15;2.03;;;26.70;40.90;;;;;;4916622;29;20052;-74
2023/06/27 11:57:59;;;;;;;7.53;1.55;;;26.70;40.80;;;;;;4900767;29;20036;-74
2023/06/27 12:00:28;;;;;;;5.95;1.75;;;26.50;40.60;;;;;;4913536;29;20043;-74
2023/06/27 12:02:55;;;;;;;5.88;1.67;;;26.70;41.20;;;;;;4918009;29;20032;-75
2023/06/27 12:05:23;;;;;;;6.82;2.00;;;26.60;41.20;;;;;;4918692;29;20103;-75
2023/06/27 12:07:55;;;;;;;6.78;2.35;;;26.70;40.70;;;;;;4906313;29;20505;-75
2023/06/27 12:10:20;;;;;;;4.87;1.67;;;26.60;40.90;;;;;;4901650;29;20403;-74
2023/06/27 12:12:46;;;;;;;3.22;1.48;;;26.60;40.10;;;;;;4918072;29;20028;-75
2023/06/27 12:15:14;;;;;;;6.10;1.80;;;26.70;40.40;;;;;;4901223;29;20035;-74
2023/06/27 12:17:55;;;;;;;7.25;1.58;;;26.70;40.80;;;;;;4916150;29;20096;-75
2023/06/27 12:20:21;;;;;;;3.70;1.40;;;26.70;41.40;;;;;;4918398;29;20059;-75
2023/06/27 12:22:46;;;;;;;4.88;1.65;;;26.80;40.20;;;;;;4915636;29;20032;-75
2023/06/27 12:25:12;;;;;;;8.05;1.83;;;27.00;40.30;;;;;;4901558;29;20032;-75
2023/06/27 12:27:38;;;;;;;4.22;1.60;;;27.10;40.10;;;;;;4915283;29;20088;-75
2023/06/27 12:30:05;;;;;;;5.13;1.95;;;27.20;40.30;;;;;;4916778;29;20546;-74
2023/06/27 12:32:31;;;;;;;5.78;1.67;;;27.20;40.40;;;;;;4918471;29;20044;-75
2023/06/27 12:34:56;;;;;;;2.72;1.45;;;27.00;39.80;;;;;;4916442;29;20025;-74
2023/06/27 12:37:23;;;;;;;3.85;1.50;;;26.80;39.50;;;;;;4899051;29;20032;-75
2023/06/27 12:39:48;;;;;;;3.60;1.52;;;26.80;40.00;;;;;;4918578;29;20087;-75
2023/06/27 12:42:14;;;;;;;5.28;1.55;;;26.70;39.50;;;;;;4916607;29;20044;-75
2023/06/27 12:44:41;;;;;;;4.80;1.70;;;26.60;40.20;;;;;;4918834;29;20439;-74
2023/06/27 12:47:07;;;;;;;4.80;1.75;;;26.60;40.20;;;;;;4917042;29;20039;-75
2023/06/27 12:49:33;;;;;;;4.68;1.92;;;26.40;40.70;;;;;;4916083;29;20048;-75
2023/06/27 12:51:59;;;;;;;4.47;1.58;;;26.60;40.40;;;;;;4904463;29;20076;-74
2023/06/27 12:54:25;;;;;;;6.90;1.73;;;26.80;40.60;;;;;;4917900;29;20024;-75
2023/06/27 12:56:50;;;;;;;4.07;1.60;;;26.90;39.00;;;;;;4917232;29;20020;-74
2023/06/27 12:59:19;;;;;;;3.42;1.48;;;27.00;40.00;;;;;;4918356;29;20032;-75
2023/06/27 13:01:55;;;;;;;4.80;1.48;;;27.10;40.10;;;;;;4918048;29;20032;-74
2023/06/27 13:04:26;;;;;;;3.28;1.33;;;27.10;40.30;;;;;;4901017;29;20507;-75
2023/06/27 13:06:51;;;;;;;4.40;1.58;;;27.10;39.20;;;;;;4893434;29;20044;-74
2023/06/27 13:09:17;;;;;;;6.10;1.55;;;27.00;39.90;;;;;;4916839;29;20040;-75
2023/06/27 13:11:43;;;;;;;5.07;1.30;;;27.00;39.30;;;;;;4896891;29;20040;-75
2023/06/27 13:14:09;;;;;;;5.35;1.90;;;26.80;39.70;;;;;;4913558;29;20028;-74
2023/06/27 13:16:35;;;;;;;4.90;1.50;;;26.80;41.90;;;;;;4883665;29;20407;-75
2023/06/27 13:19:05;;;;;;;4.30;1.70;;;26.80;40.10;;;;;;4900229;29;20032;-75
2023/06/27 13:21:31;;;;;;;5.75;1.70;;;26.90;40.50;;;;;;4900222;29;20100;-74
2023/06/27 13:23:57;;;;;;;3.75;1.45;;;27.00;39.80;;;;;;4914935;29;20032;-75
2023/06/27 13:26:23;;;;;;;3.83;1.50;;;27.10;40.70;;;;;;4910897;29;20573;-75
2023/06/27 13:28:49;;;;;;;3.90;1.35;;;27.10;41.70;;;;;;4900129;29;20047;-75
2023/06/27 13:31:14;;;;;;;5.70;1.60;;;27.10;39.80;;;;;;4915913;29;20079;-74
2023/06/27 13:33:40;;;;;;;5.75;1.77;;;27.10;39.30;;;;;;4906439;29;20509;-75
2023/06/27 13:36:06;;;;;;;4.20;1.90;;;27.00;39.90;;;;;;4918537;29;20027;-75
2023/06/27 13:38:32;;;;;;;5.78;1.63;;;27.00;40.00;;;;;;4915361;29;20181;-75
2023/06/27 13:40:57;;;;;;;6.25;2.10;;;27.20;41.30;;;;;;4904453;29;20033;-75
2023/06/27 13:43:23;;;;;;;5.43;1.52;;;27.30;40.60;;;;;;4902202;29;20059;-74
2023/06/27 13:45:53;;;;;;;4.70;1.70;;;27.30;39.30;;;;;;4916657;29;20108;-75
2023/06/27 13:48:20;;;;;;;4.63;1.48;;;27.30;40.00;;;;;;4904002;29;20041;-75
2023/06/27 13:50:45;;;;;;;8.68;1.90;;;27.30;40.40;;;;;;4885898;29;20021;-75
2023/06/27 13:53:12;;;;;;;5.97;1.63;;;27.20;39.50;;;;;;4906939;29;20081;-75
2023/06/27 13:55:37;;;;;;;5.65;1.75;;;27.30;39.60;;;;;;4901579;29;20032;-75
2023/06/27 13:58:03;;;;;;;4.57;1.60;;;27.30;39.50;;;;;;4910358;29;20124;-75
2023/06/27 14:00:29;;;;;;;4.50;1.60;;;27.40;39.30;;;;;;4904636;29;20040;-75
2023/06/27 14:02:55;;;;;;;6.18;1.55;;;27.20;39.60;;;;;;4917035;29;20066;-75
2023/06/27 14:05:23;;;;;;;4.63;1.52;;;27.10;40.60;;;;;;4920307;29;20399;-74
2023/06/27 14:07:49;;;;;;;5.72;1.40;;;27.10;39.80;;;;;;4917929;29;20176;-75
2023/06/27 14:10:14;;;;;;;5.72;1.60;;;27.10;40.20;;;;;;4920124;29;20064;-75
2023/06/27 14:12:40;;;;;;;5.32;1.40;;;27.10;39.50;;;;;;4918058;29;20035;-75
2023/06/27 14:15:07;;;;;;;5.35;1.60;;;27.10;40.00;;;;;;4901476;29;20391;-75
2023/06/27 14:17:32;;;;;;;7.78;1.73;;;27.00;40.20;;;;;;4897260;29;20048;-75
2023/06/27 14:19:58;;;;;;;5.25;1.60;;;27.10;40.00;;;;;;4919265;29;20032;-75
2023/06/27 14:22:24;;;;;;;4.55;1.35;;;27.30;39.90;;;;;;4903880;29;20028;-75
2023/06/27 14:24:49;;;;;;;6.28;1.65;;;27.30;39.80;;;;;;4920585;29;20028;-75
2023/06/27 14:27:16;;;;;;;4.05;1.50;;;27.30;39.00;;;;;;4918844;29;20495;-75
2023/06/27 14:29:42;;;;;;;5.28;1.70;;;27.30;39.90;;;;;;4920271;29;20052;-74
2023/06/27 14:32:08;;;;;;;4.72;1.40;;;27.30;39.20;;;;;;4920445;29;20052;-74
2023/06/27 14:34:34;;;;;;;5.78;1.70;;;27.30;41.10;;;;;;4915318;29;21318;-74
2023/06/27 14:37:00;;;;;;;7.10;1.90;;;27.30;39.00;;;;;;4920824;29;20031;-74
2023/06/27 14:39:25;;;;;;;4.47;1.50;;;27.30;40.20;;;;;;4901252;29;20103;-75
2023/06/27 14:41:51;;;;;;;4.80;1.60;;;27.10;39.90;;;;;;4903949;29;20024;-74
2023/06/27 14:44:20;;;;;;;4.00;1.60;;;27.20;40.00;;;;;;4919147;29;20035;-75
2023/06/27 14:46:45;;;;;;;5.13;1.58;;;27.30;40.60;;;;;;4920190;29;20043;-75
2023/06/27 14:49:11;;;;;;;5.80;1.88;;;27.30;40.00;;;;;;4900505;29;20111;-74
2023/06/27 14:51:37;;;;;;;6.13;1.85;;;27.30;39.60;;;;;;4902186;29;20491;-75
2023/06/27 14:54:03;;;;;;;6.22;1.85;;;27.30;39.70;;;;;;4918524;29;20020;-75
2023/06/27 14:56:29;;;;;;;6.00;1.73;;;27.30;40.50;;;;;;4907655;29;20043;-74
2023/06/27 14:58:54;;;;;;;5.55;1.70;;;27.30;39.10;;;;;;4918958;29;20028;-75
2023/06/27 15:01:24;;;;;;;5.72;1.50;;;27.30;39.20;;;;;;4900387;29;20128;-75
2023/06/27 15:03:53;;;;;;;5.70;1.85;;;27.20;39.00;;;;;;4898551;29;20051;-74
2023/06/27 15:06:20;;;;;;;5.03;1.52;;;27.10;39.30;;;;;;4918754;29;20032;-75
2023/06/27 15:08:45;;;;;;;4.38;1.60;;;26.90;39.80;;;;;;4918134;29;20031;-75
2023/06/27 15:11:11;;;;;;;4.80;2.17;;;26.80;40.40;;;;;;4917589;29;20028;-75
2023/06/27 15:13:38;;;;;;;4.93;2.00;;;26.70;40.40;;;;;;4900273;29;20604;-74
2023/06/27 15:16:04;;;;;;;5.70;1.90;;;26.70;40.90;;;;;;4908467;29;20028;-74
2023/06/27 15:18:30;;;;;;;5.65;1.40;;;26.70;39.90;;;;;;4917812;29;20028;-75
2023/06/27 15:20:55;;;;;;;5.35;1.70;;;26.60;40.30;;;;;;4902461;29;20042;-75
2023/06/27 15:23:21;;;;;;;4.53;1.60;;;26.40;40.90;;;;;;4915970;29;20107;-75
2023/06/27 15:25:47;;;;;;;3.45;1.48;;;26.50;41.10;;;;;;4875392;29;20045;-75
2023/06/27 15:28:12;;;;;;;5.00;1.40;;;26.60;40.90;;;;;;4912625;29;20016;-75
2023/06/27 15:30:38;;;;;;;3.50;1.55;;;26.60;40.30;;;;;;4913810;29;20052;-75
2023/06/27 15:33:04;;;;;;;3.75;1.50;;;26.50;40.80;;;;;;4913705;29;20281;-75
2023/06/27 15:35:30;;;;;;;4.18;1.58;;;26.50;40.70;;;;;;4908748;29;20403;-75
2023/06/27 15:37:55;;;;;;;4.53;1.60;;;26.50;39.90;;;;;;4899373;29;20036;-75
2023/06/27 15:40:21;;;;;;;5.68;1.60;;;26.40;40.80;;;;;;4910820;29;20035;-75
2023/06/27 15:42:47;;;;;;;3.90;1.58;;;26.30;41.50;;;;;;4905135;29;20481;-74
2023/06/27 15:45:12;;;;;;;6.13;1.95;;;26.00;41.80;;;;;;4900665;29;20036;-75
2023/06/27 15:47:38;;;;;;;6.95;2.10;;;26.10;41.30;;;;;;4919368;29;20032;-74
2023/06/27 15:50:05;;;;;;;7.07;1.98;;;26.20;41.40;;;;;;4916858;29;20475;-74
2023/06/27 15:52:31;;;;;;;4.85;2.13;;;26.30;40.70;;;;;;4890993;29;20060;-75
2023/06/27 15:55:00;;;;;;;7.32;2.35;;;26.30;39.70;;;;;;4918147;29;20035;-75
2023/06/27 15:57:31;;;;;;;3.78;1.70;;;26.40;40.60;;;;;;4918328;29;20039;-75
2023/06/27 15:59:57;;;;;;;5.95;1.80;;;26.30;41.10;;;;;;4918962;29;20072;-75
2023/06/27 16:02:22;;;;;;;11.82;1.90;;;26.40;41.00;;;;;;4911504;29;20020;-75
2023/06/27 16:04:49;;;;;;;5.45;1.58;;;26.40;41.60;;;;;;4901135;29;20384;-74
2023/06/27 16:07:15;;;;;;;4.32;1.40;;;26.40;41.10;;;;;;4911963;29;20024;-74
2023/06/27 16:09:43;;;;;;;3.80;1.70;;;26.50;42.00;;;;;;4918620;29;20028;-75
2023/06/27 16:12:09;;;;;;;8.35;1.92;;;26.40;42.90;;;;;;4911570;29;20028;-75
2023/06/27 16:14:35;;;;;;;5.07;1.75;;;26.50;41.00;;;;;;4898847;29;20043;-75
2023/06/27 16:17:01;;;;;;;4.82;1.50;;;26.40;41.90;;;;;;4914901;29;20043;-75
2023/06/27 16:19:26;;;;;;;6.13;1.80;;;26.40;41.80;;;;;;4914911;29;20507;-74
2023/06/27 16:21:52;;;;;;;3.05;1.80;;;26.30;42.10;;;;;;4916663;29;20027;-75
2023/06/27 16:24:18;;;;;;;3.97;1.70;;;26.30;42.20;;;;;;4917191;29;20036;-74
2023/06/27 16:26:44;;;;;;;5.82;1.80;;;26.10;42.70;;;;;;4917971;29;20024;-74
2023/06/27 16:29:10;;;;;;;5.18;1.50;;;26.10;42.70;;;;;;4917465;29;20028;-74
2023/06/27 16:31:36;;;;;;;4.10;1.50;;;26.00;42.90;;;;;;4918106;29;20044;-74
2023/06/27 16:34:01;;;;;;;4.55;1.70;;;26.10;43.80;;;;;;4911799;29;20032;-75
2023/06/27 16:36:29;;;;;;;4.28;1.50;;;26.20;43.50;;;;;;4916602;29;20100;-75
2023/06/27 16:38:55;;;;;;;5.50;1.58;;;26.30;43.00;;;;;;4911818;29;20087;-74
2023/06/27 16:41:20;;;;;;;9.55;2.00;;;26.30;43.50;;;;;;4914333;29;20103;-75
2023/06/27 16:43:46;;;;;;;5.03;1.85;;;26.30;43.30;;;;;;4911107;29;20586;-75
2023/06/27 16:46:12;;;;;;;3.80;1.67;;;26.30;43.20;;;;;;4884945;29;20042;-75
2023/06/27 16:48:37;;;;;;;5.20;2.13;;;26.30;42.60;;;;;;4911833;29;20111;-74
2023/06/27 16:51:03;;;;;;;6.60;1.70;;;26.20;43.10;;;;;;4914369;29;20061;-74
2023/06/27 16:53:28;;;;;;;4.57;1.70;;;26.10;43.60;;;;;;4896929;29;20403;-75
2023/06/27 16:55:54;;;;;;;6.13;1.67;;;26.00;43.80;;;;;;4907787;29;20478;-74
2023/06/27 16:58:19;;;;;;;6.78;2.00;;;25.90;43.10;;;;;;4915789;29;20439;-74
2023/06/27 17:00:45;;;;;;;4.53;1.30;;;25.80;43.20;;;;;;4917573;29;20111;-74
2023/06/27 17:03:11;;;;;;;6.47;1.70;;;25.80;43.30;;;;;;4914593;29;20033;-75
2023/06/27 17:05:36;;;;;;;4.65;1.65;;;25.70;43.70;;;;;;4912061;29;20030;-74
2023/06/27 17:08:03;;;;;;;4.65;1.60;;;25.60;43.80;;;;;;4896154;29;20028;-74
2023/06/27 17:10:28;;;;;;;4.63;1.60;;;25.50;44.40;;;;;;4910379;29;20028;-74
2023/06/27 17:12:54;;;;;;;4.65;1.70;;;25.30;45.90;;;;;;4914806;29;20036;-74
2023/06/27 17:15:21;;;;;;;5.13;2.53;;;25.10;45.90;;;;;;4906340;29;20028;-72